createdAt,value
2022-12-20T00:00:47.236Z,12.10
2022-12-20T00:03:18.943Z,12.80
2022-12-20T00:05:50.801Z,14.80
2022-12-20T00:08:22.457Z,14.00
2022-12-20T00:10:53.971Z,14.30
2022-12-20T00:16:01.322Z,13.50
2022-12-20T00:18:32.918Z,14.20
2022-12-20T00:21:06.388Z,13.40
2022-12-20T00:23:38.649Z,13.60
2022-12-20T00:26:11.100Z,14.10
2022-12-20T00:28:43.271Z,13.60
2022-12-20T00:31:16.177Z,12.70
2022-12-20T00:33:49.742Z,14.80
2022-12-20T00:36:21.309Z,12.10
2022-12-20T00:41:24.404Z,13.60
2022-12-20T00:43:56.129Z,12.40
2022-12-20T00:46:27.736Z,12.20
2022-12-20T00:48:59.339Z,12.90
2022-12-20T00:51:32.975Z,14.40
2022-12-20T00:54:05.276Z,13.80
2022-12-20T00:56:36.858Z,15.20
2022-12-20T00:59:08.545Z,14.80
2022-12-20T01:01:40.481Z,15.60
2022-12-20T01:04:12.163Z,14.30
2022-12-20T01:06:46.885Z,15.00
2022-12-20T01:09:18.368Z,14.70
2022-12-20T01:14:20.151Z,14.70
2022-12-20T01:16:51.796Z,14.20
2022-12-20T01:19:23.371Z,15.20
2022-12-20T01:21:55.140Z,15.50
2022-12-20T01:24:26.539Z,14.80
2022-12-20T01:29:28.053Z,16.10
2022-12-20T01:31:59.647Z,18.90
2022-12-20T01:34:31.196Z,17.40
2022-12-20T01:37:03.013Z,14.70
2022-12-20T01:39:34.498Z,17.10
2022-12-20T01:45:01.670Z,13.80
2022-12-20T01:47:34.105Z,16.40
2022-12-20T01:50:05.833Z,14.00
2022-12-20T01:52:38.803Z,14.20
2022-12-20T01:55:12.780Z,13.70
2022-12-20T01:57:46.876Z,15.60
2022-12-20T02:00:19.811Z,17.00
2022-12-20T02:02:52.257Z,16.50
2022-12-20T02:05:24.717Z,16.00
2022-12-20T02:07:57.502Z,14.30
2022-12-20T02:10:31.404Z,14.30
2022-12-20T02:13:06.799Z,15.90
2022-12-20T02:15:47.274Z,16.40
2022-12-20T02:18:23.686Z,15.70
2022-12-20T02:21:23.482Z,18.40
2022-12-20T02:24:27.396Z,18.80
2022-12-20T02:27:14.414Z,20.00
2022-12-20T02:30:08.226Z,19.20
2022-12-20T02:32:43.138Z,18.00
2022-12-20T02:35:16.788Z,17.50
2022-12-20T02:37:53.372Z,19.30
2022-12-20T02:40:27.272Z,16.80
2022-12-20T02:43:00.563Z,20.30
2022-12-20T02:45:35.502Z,19.80
2022-12-20T02:48:09.015Z,19.80
2022-12-20T02:50:42.031Z,21.50
2022-12-20T02:53:14.060Z,18.20
2022-12-20T02:55:49.675Z,18.40
2022-12-20T02:58:23.171Z,19.80
2022-12-20T03:00:55.304Z,21.30
2022-12-20T03:03:26.846Z,20.10
2022-12-20T03:05:58.592Z,21.20
2022-12-20T03:08:30.410Z,19.40
2022-12-20T03:11:02.112Z,19.90
2022-12-20T03:13:35.541Z,23.50
2022-12-20T03:16:12.167Z,22.00
2022-12-20T03:18:45.665Z,28.00
2022-12-20T03:21:17.259Z,25.90
2022-12-20T03:26:18.881Z,26.20
2022-12-20T03:28:54.307Z,26.30
2022-12-20T03:31:27.333Z,28.20
2022-12-20T03:33:59.367Z,24.60
2022-12-20T03:36:31.296Z,22.40
2022-12-20T03:39:05.943Z,20.40
2022-12-20T03:41:40.763Z,22.10
2022-12-20T03:44:12.740Z,21.50
2022-12-20T03:46:44.932Z,22.70
2022-12-20T03:49:16.735Z,24.50
2022-12-20T03:51:51.978Z,23.70
2022-12-20T03:54:23.678Z,25.10
2022-12-20T03:57:06.603Z,22.10
2022-12-20T03:59:38.673Z,22.00
2022-12-20T04:02:10.995Z,21.80
2022-12-20T04:04:42.807Z,22.50
2022-12-20T04:07:14.505Z,17.30
2022-12-20T04:09:49.121Z,19.30
2022-12-20T04:14:50.425Z,19.60
2022-12-20T04:19:52.347Z,16.00
2022-12-20T04:22:23.994Z,19.20
2022-12-20T04:25:00.545Z,19.70
2022-12-20T04:27:36.822Z,18.70
2022-12-20T04:30:12.558Z,18.70
2022-12-20T04:32:44.179Z,18.70
2022-12-20T04:35:15.767Z,19.50
2022-12-20T04:37:47.506Z,17.60
2022-12-20T04:40:19.574Z,16.20
2022-12-20T04:42:53.852Z,17.80
2022-12-20T04:47:55.917Z,14.20
2022-12-20T04:50:31.329Z,16.30
2022-12-20T04:53:20.598Z,17.60
2022-12-20T04:55:52.409Z,14.90
2022-12-20T04:58:23.946Z,22.10
2022-12-20T05:03:30.527Z,19.80
2022-12-20T05:06:02.407Z,18.20
2022-12-20T05:08:34.145Z,17.70
2022-12-20T05:11:06.158Z,19.20
2022-12-20T05:13:37.829Z,17.70
2022-12-20T05:16:09.717Z,16.60
2022-12-20T05:18:48.200Z,17.60
2022-12-20T05:21:38.655Z,16.60
2022-12-20T05:24:30.023Z,17.30
2022-12-20T05:27:10.720Z,17.20
2022-12-20T05:29:42.990Z,16.70
2022-12-20T05:32:15.114Z,19.20
2022-12-20T05:34:47.225Z,19.10
2022-12-20T05:37:20.039Z,23.70
2022-12-20T05:39:51.851Z,19.60
2022-12-20T05:42:26.068Z,17.60
2022-12-20T05:44:57.913Z,18.30
2022-12-20T05:47:31.116Z,18.10
2022-12-20T05:50:12.282Z,19.60
2022-12-20T05:53:11.809Z,18.60
2022-12-20T05:55:48.867Z,16.60
2022-12-20T05:58:20.815Z,18.10
2022-12-20T06:00:57.719Z,17.10
2022-12-20T06:03:30.038Z,18.30
2022-12-20T06:06:02.267Z,18.50
2022-12-20T06:08:36.694Z,19.70
2022-12-20T06:11:11.980Z,17.90
2022-12-20T06:13:53.075Z,17.00
2022-12-20T06:16:26.198Z,15.40
2022-12-20T06:19:00.947Z,17.40
2022-12-20T06:21:33.290Z,18.40
2022-12-20T06:24:05.364Z,17.40
2022-12-20T06:26:37.543Z,19.20
2022-12-20T06:29:14.397Z,17.50
2022-12-20T06:31:51.383Z,18.30
2022-12-20T06:34:22.829Z,17.70
2022-12-20T06:36:55.113Z,15.80
2022-12-20T06:39:30.637Z,17.40
2022-12-20T06:42:08.589Z,20.10
2022-12-20T06:44:40.923Z,18.80
2022-12-20T06:47:12.681Z,19.30
2022-12-20T06:49:44.313Z,22.90
2022-12-20T06:52:24.133Z,22.60
2022-12-20T06:54:59.013Z,20.10
2022-12-20T07:00:01.216Z,21.00
2022-12-20T07:02:32.773Z,18.30
2022-12-20T07:05:05.471Z,19.90
2022-12-20T07:07:44.368Z,18.90
2022-12-20T07:10:16.910Z,23.30
2022-12-20T07:12:48.910Z,19.10
2022-12-20T07:15:22.481Z,18.50
2022-12-20T07:17:53.829Z,16.80
2022-12-20T07:22:55.872Z,20.10
2022-12-20T07:25:27.661Z,19.40
2022-12-20T07:27:59.222Z,17.80
2022-12-20T07:33:00.751Z,20.00
2022-12-20T07:35:32.293Z,17.00
2022-12-20T07:38:04.300Z,21.70
2022-12-20T07:40:36.121Z,25.70
2022-12-20T07:43:08.760Z,30.10
2022-12-20T07:45:40.350Z,41.40
2022-12-20T07:48:16.395Z,43.10
2022-12-20T07:50:49.823Z,45.60
2022-12-20T07:53:21.577Z,38.60
2022-12-20T07:55:53.206Z,35.40
2022-12-20T08:00:55.360Z,36.90
2022-12-20T08:03:27.943Z,39.40
2022-12-20T08:05:59.759Z,40.40
2022-12-20T08:08:31.220Z,43.10
2022-12-20T08:13:33.214Z,41.10
2022-12-20T08:16:04.881Z,39.50
2022-12-20T08:18:36.468Z,36.30
2022-12-20T08:21:08.826Z,36.50
2022-12-20T08:23:40.428Z,34.60
2022-12-20T08:26:12.024Z,35.10
2022-12-20T08:28:43.656Z,32.20
2022-12-20T08:31:15.148Z,29.70
2022-12-20T08:33:46.998Z,33.70
2022-12-20T08:36:18.467Z,31.30
2022-12-20T08:41:20.920Z,30.70
2022-12-20T08:43:52.428Z,29.30
2022-12-20T08:48:54.193Z,31.90
2022-12-20T08:51:26.259Z,31.70
2022-12-20T08:53:57.897Z,28.70
2022-12-20T08:56:29.893Z,29.30
2022-12-20T08:59:01.619Z,29.40
2022-12-20T09:01:34.538Z,29.80
2022-12-20T09:04:07.421Z,31.50
2022-12-20T09:06:39.347Z,31.40
2022-12-20T09:09:11.114Z,27.60
2022-12-20T09:11:44.034Z,26.20
2022-12-20T09:16:45.619Z,25.60
2022-12-20T09:21:47.125Z,27.50
2022-12-20T09:26:50.769Z,28.50
2022-12-20T09:29:29.609Z,26.40
2022-12-20T09:32:03.757Z,28.90
2022-12-20T09:34:35.344Z,27.70
2022-12-20T09:37:19.763Z,28.50
2022-12-20T09:39:53.488Z,27.90
2022-12-20T09:42:26.176Z,23.80
2022-12-20T09:44:59.690Z,29.90
2022-12-20T09:47:31.107Z,30.10
2022-12-20T09:50:02.822Z,31.70
2022-12-20T09:52:40.366Z,30.50
2022-12-20T09:55:18.989Z,28.50
2022-12-20T09:57:56.940Z,30.20
2022-12-20T10:00:30.797Z,31.60
2022-12-20T10:03:10.181Z,31.80
2022-12-20T10:05:48.002Z,33.20
2022-12-20T10:08:30.380Z,31.10
2022-12-20T10:11:03.972Z,32.10
2022-12-20T10:13:44.566Z,38.10
2022-12-20T10:16:24.534Z,37.70
2022-12-20T10:19:02.978Z,35.80
2022-12-20T10:21:39.160Z,37.50
2022-12-20T10:24:13.951Z,35.40
2022-12-20T10:26:45.638Z,34.20
2022-12-20T10:31:47.672Z,35.20
2022-12-20T10:36:49.582Z,37.00
2022-12-20T10:39:21.894Z,40.30
2022-12-20T10:41:53.826Z,37.90
2022-12-20T10:44:26.976Z,39.80
2022-12-20T10:46:59.502Z,40.30
2022-12-20T10:49:35.534Z,39.10
2022-12-20T10:52:14.991Z,36.50
2022-12-20T10:54:47.014Z,34.00
2022-12-20T10:57:21.874Z,34.40
2022-12-20T10:59:54.332Z,31.30
2022-12-20T11:02:37.227Z,37.00
2022-12-20T11:05:25.392Z,34.80
2022-12-20T11:10:50.876Z,35.00
2022-12-20T11:13:29.310Z,34.90
2022-12-20T11:16:02.042Z,39.00
2022-12-20T11:18:39.846Z,37.30
2022-12-20T11:21:27.400Z,37.70
2022-12-20T11:24:03.688Z,36.30
2022-12-20T11:26:42.600Z,38.60
2022-12-20T11:29:22.214Z,37.60
2022-12-20T11:31:58.401Z,36.20
2022-12-20T11:34:36.112Z,38.00
2022-12-20T11:37:16.161Z,38.00
2022-12-20T11:39:59.022Z,36.30
2022-12-20T11:42:33.561Z,39.80
2022-12-20T11:45:09.628Z,40.20
2022-12-20T11:48:04.287Z,39.40
2022-12-20T11:50:47.214Z,39.60
2022-12-20T11:53:24.639Z,40.10
2022-12-20T11:55:58.076Z,37.80
2022-12-20T11:58:31.163Z,38.00
2022-12-20T12:01:05.095Z,41.40
2022-12-20T12:03:39.269Z,47.50
2022-12-20T12:06:12.749Z,46.50
2022-12-20T12:08:47.105Z,49.10
2022-12-20T12:12:03.824Z,43.20
2022-12-20T12:14:16.097Z,40.70
2022-12-20T12:16:49.351Z,38.90
2022-12-20T12:19:20.996Z,37.80
2022-12-20T12:24:26.944Z,38.10
2022-12-20T12:26:59.135Z,37.00
2022-12-20T12:29:31.312Z,35.50
2022-12-20T12:32:04.241Z,36.50
2022-12-20T12:34:46.592Z,35.90
2022-12-20T12:37:38.671Z,36.30
2022-12-20T12:40:34.195Z,34.40
2022-12-20T12:43:38.421Z,36.70
2022-12-20T12:46:15.468Z,38.30
2022-12-20T12:48:50.721Z,40.10
2022-12-20T12:51:27.309Z,37.10
2022-12-20T12:54:19.653Z,33.70
2022-12-20T12:56:51.247Z,36.10
2022-12-20T12:59:41.676Z,37.10
2022-12-20T13:02:36.932Z,31.20
2022-12-20T13:05:36.032Z,29.90
2022-12-20T13:08:10.796Z,31.20
2022-12-20T13:11:14.950Z,27.40
2022-12-20T13:13:46.534Z,31.00
2022-12-20T13:19:31.784Z,32.40
2022-12-20T13:22:20.369Z,27.20
2022-12-20T13:24:59.157Z,29.20
2022-12-20T13:27:39.530Z,29.80
2022-12-20T13:30:30.859Z,27.00
2022-12-20T13:36:06.419Z,22.90
2022-12-20T13:38:53.738Z,23.00
2022-12-20T13:41:37.809Z,24.30
2022-12-20T13:44:36.559Z,23.20
2022-12-20T13:47:18.071Z,22.30
2022-12-20T13:49:49.911Z,26.00
2022-12-20T13:52:25.869Z,26.30
2022-12-20T13:54:58.658Z,26.10
2022-12-20T13:57:33.108Z,25.80
2022-12-20T14:00:08.094Z,28.60
2022-12-20T14:02:43.517Z,27.50
2022-12-20T14:05:21.485Z,28.10
2022-12-20T14:07:56.321Z,26.70
2022-12-20T14:10:29.068Z,27.50
2022-12-20T14:13:00.673Z,24.40
2022-12-20T14:15:33.631Z,27.60
2022-12-20T14:18:17.940Z,27.10
2022-12-20T14:20:50.446Z,27.00
2022-12-20T14:23:23.198Z,27.30
2022-12-20T14:25:55.673Z,25.90
2022-12-20T14:28:32.660Z,26.80
2022-12-20T14:31:04.515Z,30.00
2022-12-20T14:33:38.552Z,27.80
2022-12-20T14:36:19.797Z,31.70
2022-12-20T14:38:52.239Z,29.50
2022-12-20T14:41:35.175Z,30.60
2022-12-20T14:44:19.025Z,32.30
2022-12-20T14:46:54.502Z,31.60
2022-12-20T14:49:27.343Z,30.50
2022-12-20T14:52:09.105Z,31.60
2022-12-20T14:57:40.290Z,28.50
2022-12-20T15:00:21.546Z,30.70
2022-12-20T15:02:59.637Z,30.80
2022-12-20T15:05:52.821Z,28.10
2022-12-20T15:08:27.477Z,30.50
2022-12-20T15:11:04.019Z,30.70
2022-12-20T15:13:37.039Z,29.20
2022-12-20T15:16:15.216Z,29.70
2022-12-20T15:18:46.621Z,30.00
2022-12-20T15:21:20.485Z,33.00
2022-12-20T15:23:53.612Z,30.10
2022-12-20T15:26:26.112Z,28.80
2022-12-20T15:28:57.946Z,29.60
2022-12-20T15:31:33.663Z,31.20
2022-12-20T15:34:06.593Z,31.90
2022-12-20T15:36:38.661Z,28.80
2022-12-20T15:39:12.925Z,28.40
2022-12-20T15:41:46.660Z,26.10
2022-12-20T15:44:20.862Z,31.30
2022-12-20T15:46:53.619Z,29.10
2022-12-20T15:49:26.325Z,27.70
2022-12-20T15:51:57.852Z,32.10
2022-12-20T15:54:30.563Z,28.30
2022-12-20T15:57:03.810Z,29.60
2022-12-20T16:02:29.896Z,28.50
2022-12-20T16:05:02.007Z,30.00
2022-12-20T16:07:33.796Z,29.20
2022-12-20T16:10:05.753Z,29.30
2022-12-20T16:12:38.852Z,29.80
2022-12-20T16:15:15.175Z,28.20
2022-12-20T16:17:46.719Z,33.40
2022-12-20T16:20:19.729Z,32.40
2022-12-20T16:22:51.969Z,34.30
2022-12-20T16:25:29.774Z,32.30
2022-12-20T16:28:01.186Z,29.20
2022-12-20T16:30:32.873Z,34.90
2022-12-20T16:33:04.645Z,34.80
2022-12-20T16:38:10.374Z,26.50
2022-12-20T16:40:41.902Z,25.00
2022-12-20T16:45:44.828Z,28.40
2022-12-20T16:48:16.409Z,28.20
2022-12-20T16:50:47.963Z,26.60
2022-12-20T16:53:19.625Z,27.10
2022-12-20T16:58:23.727Z,25.30
2022-12-20T17:01:00.627Z,27.60
2022-12-20T17:03:33.010Z,29.20
2022-12-20T17:06:05.304Z,27.50
2022-12-20T17:13:57.514Z,29.20
2022-12-20T17:16:29.311Z,33.70
2022-12-20T17:19:01.152Z,32.60
2022-12-20T17:24:22.078Z,33.80
2022-12-20T17:26:53.706Z,36.70
2022-12-20T17:29:25.491Z,35.80
2022-12-20T17:31:57.104Z,35.30
2022-12-20T17:34:30.424Z,31.20
2022-12-20T17:37:02.063Z,29.30
2022-12-20T17:39:33.942Z,33.70
2022-12-20T17:42:05.526Z,34.40
2022-12-20T17:44:37.959Z,35.80
2022-12-20T17:47:09.526Z,34.10
2022-12-20T17:49:41.158Z,34.50
2022-12-20T17:57:17.201Z,32.20
2022-12-20T17:59:48.703Z,32.30
2022-12-20T18:02:28.123Z,34.00
2022-12-20T18:05:00.012Z,32.70
2022-12-20T18:10:01.339Z,32.70
2022-12-20T18:12:37.421Z,32.00
2022-12-20T18:15:11.132Z,28.60
2022-12-20T18:17:42.880Z,33.10
2022-12-20T18:20:15.889Z,30.60
2022-12-20T18:22:47.635Z,31.40
2022-12-20T18:25:19.363Z,33.20
2022-12-20T18:27:50.921Z,29.20
2022-12-20T18:32:53.164Z,32.60
2022-12-20T18:35:24.567Z,37.00
2022-12-20T18:37:56.417Z,36.60
2022-12-20T18:40:28.135Z,32.50
2022-12-20T18:43:05.838Z,31.40
2022-12-20T18:45:39.229Z,34.40
2022-12-20T18:48:12.080Z,28.80
2022-12-20T18:50:44.225Z,27.10
2022-12-20T18:53:15.839Z,25.40
2022-12-20T18:55:47.985Z,26.60
2022-12-20T18:58:19.853Z,27.00
2022-12-20T19:00:54.854Z,28.10
2022-12-20T19:03:26.685Z,28.80
2022-12-20T19:05:58.470Z,26.20
2022-12-20T19:08:30.759Z,27.50
2022-12-20T19:11:02.868Z,28.80
2022-12-20T19:13:34.885Z,24.80
2022-12-20T19:16:08.500Z,24.60
2022-12-20T19:18:41.384Z,28.00
2022-12-20T19:21:13.999Z,28.50
2022-12-20T19:23:46.905Z,27.70
2022-12-20T19:26:18.357Z,28.90
2022-12-20T19:28:50.021Z,31.70
2022-12-20T19:31:24.244Z,29.90
2022-12-20T19:33:56.556Z,30.80
2022-12-20T19:36:29.263Z,31.10
2022-12-20T19:39:02.562Z,33.90
2022-12-20T19:41:35.108Z,29.40
2022-12-20T19:44:07.576Z,34.70
2022-12-20T19:46:39.379Z,30.00
2022-12-20T19:49:11.096Z,30.10
2022-12-20T19:51:42.675Z,30.30
2022-12-20T19:56:44.382Z,28.20
2022-12-20T19:59:16.879Z,31.70
2022-12-20T20:01:48.939Z,28.50
2022-12-20T20:04:20.625Z,31.70
2022-12-20T20:06:52.662Z,30.40
2022-12-20T20:09:24.485Z,31.00
2022-12-20T20:11:56.145Z,28.40
2022-12-20T20:14:27.979Z,28.10
2022-12-20T20:19:29.878Z,27.50
2022-12-20T20:22:01.461Z,26.10
2022-12-20T20:27:03.319Z,24.60
2022-12-20T20:29:35.219Z,26.10
2022-12-20T20:32:07.907Z,25.80
2022-12-20T20:34:39.723Z,25.40
2022-12-20T20:37:11.670Z,29.40
2022-12-20T20:39:43.925Z,27.90
2022-12-20T20:42:18.518Z,25.20
2022-12-20T20:44:54.607Z,27.80
2022-12-20T20:49:55.904Z,25.10
2022-12-20T20:54:57.735Z,31.80
2022-12-20T20:59:59.436Z,30.40
2022-12-20T21:02:31.593Z,28.30
2022-12-20T21:07:55.673Z,26.10
2022-12-20T21:10:30.304Z,25.50
2022-12-20T21:13:02.095Z,24.00
2022-12-20T21:15:34.737Z,23.60
2022-12-20T21:18:06.563Z,23.30
2022-12-20T21:20:38.776Z,23.30
2022-12-20T21:23:11.435Z,23.60
2022-12-20T21:25:43.138Z,23.70
2022-12-20T21:28:20.977Z,23.40
2022-12-20T21:31:01.044Z,24.90
2022-12-20T21:33:32.879Z,22.40
2022-12-20T21:36:05.966Z,22.70
2022-12-20T21:38:37.534Z,24.40
2022-12-20T21:43:40.045Z,21.70
2022-12-20T21:46:11.921Z,22.30
2022-12-20T21:48:43.931Z,22.40
2022-12-20T21:51:16.349Z,21.70
2022-12-20T21:53:48.637Z,22.60
2022-12-20T21:56:20.367Z,21.10
2022-12-20T22:01:23.642Z,22.30
2022-12-20T22:03:55.912Z,20.40
2022-12-20T22:06:28.401Z,21.60
2022-12-20T22:09:01.554Z,20.40
2022-12-20T22:11:33.276Z,19.90
2022-12-20T22:14:04.714Z,20.30
2022-12-20T22:16:36.344Z,20.70
2022-12-20T22:19:09.241Z,20.30
2022-12-20T22:21:41.134Z,22.00
2022-12-20T22:24:13.021Z,20.00
2022-12-20T22:26:44.952Z,22.00
2022-12-20T22:29:16.506Z,20.90
2022-12-20T22:34:19.003Z,22.80
2022-12-20T22:36:50.759Z,23.40
2022-12-20T22:39:22.356Z,23.60
2022-12-20T22:44:23.942Z,22.10
2022-12-20T22:49:45.121Z,21.20
2022-12-20T22:52:17.061Z,22.40
2022-12-20T22:54:48.716Z,21.60
2022-12-20T22:59:50.563Z,17.70
2022-12-20T23:02:22.548Z,19.70
2022-12-20T23:04:54.457Z,21.00
2022-12-20T23:07:26.116Z,21.20
2022-12-20T23:09:57.854Z,20.50
2022-12-20T23:12:47.006Z,23.00
2022-12-20T23:15:36.574Z,21.40
2022-12-20T23:18:08.365Z,20.90
2022-12-20T23:20:57.715Z,20.70
2022-12-20T23:23:29.233Z,19.90
2022-12-20T23:28:41.211Z,20.40
2022-12-20T23:31:12.883Z,21.30
2022-12-20T23:33:44.505Z,18.80
2022-12-20T23:36:16.039Z,17.80
2022-12-20T23:41:18.473Z,18.90
2022-12-20T23:43:49.819Z,18.00
2022-12-20T23:46:21.990Z,18.60
2022-12-20T23:48:54.116Z,18.00
2022-12-20T23:51:26.064Z,18.70
2022-12-20T23:53:57.507Z,18.20
2022-12-20T23:56:29.177Z,19.40
2022-12-20T23:59:02.535Z,19.50
